Weather History for Newton, KS

Change the Weather History Date:

Thursday, December 6, 2012

  Actual Average Record
Temperature  
Mean Temperature 45 °F -  
Max Temperature 53 °F 43 °F 60 °F (2001)
Min Temperature 37 °F 26 °F 5 °F (2013)
Degree Days  
Heating Degree Days 20    
Moisture  
Dew Point 36 °F    
Average Humidity 67    
Maximum Humidity 82    
Minimum Humidity 49    
Precipitation  
Precipitation 0.00 in - - ()
Sea Level Pressure  
Sea Level Pressure 29.90 in    
Wind  
Wind Speed 11 mph (SE)    
Max Wind Speed 16 mph    
Max Gust Speed 18 mph    
Visibility 10 miles    
Events      
Averages and records for this station are not official NWS values.
T = Trace of Precipitation, MM = Missing Value Source: NWS Daily Summary

Daily Weather History Graph

Daily Weather History Graph

Search for Another Location

Airport:

Trip Planner

Search our weather history database for the weather conditions in past years. The results will help you decide how hot, cold, wet, or windy it might be!

Date:

Astronomy

Dec. 06, 2012 Rise Set
Actual Time 7:31 AM CST 5:09 PM CST
Civil Twilight 7:02 AM CST 5:38 PM CST
Nautical Twilight 6:29 AM CST 6:11 PM CST
Astronomical Twilight 5:57 AM CST 6:43 PM CST
Moon No Moon Rise 12:30 PM CST (12/6)
Length of Visible Light 10h 36m
Length of Day
9h 37m
Waning Gibbous, 49% of the Moon is Illuminated
Dec 6
Waning Gibbous
Dec 13
New
Dec 19
First Quarter
Dec 28
Full
Jan 4
Last Quarter

Hourly Weather History & Observations

Time (CST) Temp. Windchill Dew Point Humidity Pressure Visibility Wind Dir Wind Speed Gust Speed Precip Events Conditions
12:15 AM 42.8 °F 36.6 °F 24.8 °F 49% 29.96 in 10.0 mi SSE 11.5 mph - N/A   Clear
12:35 AM 42.8 °F 36.6 °F 26.6 °F 53% 29.95 in 10.0 mi South 11.5 mph - N/A   Clear
12:55 AM 44.6 °F 37.8 °F 26.6 °F 49% 29.94 in 10.0 mi South 15.0 mph 18.4 mph N/A   Clear
1:15 AM 44.6 °F 37.8 °F 26.6 °F 49% 29.93 in 10.0 mi South 15.0 mph - N/A   Clear
1:35 AM 42.8 °F 36.2 °F 26.6 °F 53% 29.93 in 10.0 mi SSE 12.7 mph - N/A   Clear
1:55 AM 42.8 °F 36.2 °F 26.6 °F 53% 29.93 in 10.0 mi South 12.7 mph - N/A   Clear
2:15 AM 42.8 °F 36.2 °F 26.6 °F 53% 29.93 in 10.0 mi South 12.7 mph - N/A   Clear
2:35 AM 42.8 °F 36.6 °F 26.6 °F 53% 29.93 in 10.0 mi South 11.5 mph - N/A   Clear
2:55 AM 41.0 °F 35.2 °F 26.6 °F 57% 29.92 in 10.0 mi SSE 9.2 mph - N/A   Clear
3:15 AM 39.2 °F 33.0 °F 26.6 °F 61% 29.91 in 10.0 mi SE 9.2 mph - N/A   Clear
3:35 AM 39.2 °F 33.6 °F 26.6 °F 61% 29.91 in 10.0 mi SE 8.1 mph - N/A   Clear
3:55 AM 39.2 °F 33.0 °F 28.4 °F 65% 29.90 in 10.0 mi SSE 9.2 mph - N/A   Clear
4:15 AM 39.2 °F 33.0 °F 28.4 °F 65% 29.90 in 10.0 mi SSE 9.2 mph - N/A   Clear
4:35 AM 39.2 °F 32.5 °F 28.4 °F 65% 29.89 in 10.0 mi SSE 10.4 mph - N/A   Clear
4:55 AM 39.2 °F 33.0 °F 30.2 °F 70% 29.89 in 10.0 mi SSE 9.2 mph - N/A   Clear
5:15 AM 37.4 °F 30.8 °F 28.4 °F 70% 29.89 in 10.0 mi SSE 9.2 mph - N/A   Clear
5:35 AM 37.4 °F 30.3 °F 30.2 °F 75% 29.88 in 10.0 mi SSE 10.4 mph - N/A   Clear
5:55 AM 39.2 °F 32.5 °F 30.2 °F 70% 29.88 in 10.0 mi SSE 10.4 mph - N/A   Clear
6:15 AM 39.2 °F 31.6 °F 33.8 °F 81% 29.88 in 10.0 mi SSE 12.7 mph - N/A   Clear
6:35 AM 41.0 °F 33.5 °F 35.6 °F 81% 29.88 in 10.0 mi South 13.8 mph - N/A   Clear
6:55 AM 42.8 °F 36.2 °F 35.6 °F 76% 29.88 in 10.0 mi SSE 12.7 mph 17.3 mph N/A   Clear
7:15 AM 42.8 °F 36.6 °F 35.6 °F 76% 29.88 in 10.0 mi SSE 11.5 mph - N/A   Clear
7:35 AM 42.8 °F 37.0 °F 37.4 °F 81% 29.88 in 10.0 mi SSE 10.4 mph - N/A   Clear
7:55 AM 42.8 °F 36.6 °F 37.4 °F 81% 29.88 in 10.0 mi South 11.5 mph - N/A   Clear
8:15 AM 42.8 °F 37.0 °F 37.4 °F 81% 29.88 in 10.0 mi South 10.4 mph - N/A   Scattered Clouds
8:35 AM 44.6 °F 39.7 °F 37.4 °F 76% 29.89 in 10.0 mi South 9.2 mph - N/A   Overcast
8:55 AM 44.6 °F 39.2 °F 39.2 °F 81% 29.88 in 10.0 mi South 10.4 mph - N/A   Overcast
9:15 AM 46.4 °F 40.1 °F 39.2 °F 76% 29.89 in 10.0 mi South 15.0 mph - N/A   Overcast
9:35 AM 46.4 °F 39.8 °F 41.0 °F 81% 29.88 in 10.0 mi South 16.1 mph - N/A   Overcast
9:55 AM 48.2 °F - 42.8 °F 82% 29.88 in 10.0 mi South 15.0 mph - N/A   Overcast
10:15 AM 48.2 °F - 42.8 °F 82% 29.88 in 10.0 mi SSW 16.1 mph - N/A   Overcast
10:35 AM 48.2 °F - 42.8 °F 82% 29.89 in 10.0 mi SSW 13.8 mph - N/A   Overcast
10:55 AM 48.2 °F - 42.8 °F 82% 29.90 in 10.0 mi SSW 12.7 mph - N/A   Overcast
11:15 AM 50.0 °F - 42.8 °F 76% 29.89 in 10.0 mi SSW 12.7 mph - N/A   Overcast
11:35 AM 50.0 °F - 42.8 °F 76% 29.88 in 10.0 mi SSW 11.5 mph - N/A   Overcast
11:55 AM 51.8 °F - 42.8 °F 71% 29.87 in 10.0 mi SSW 10.4 mph - N/A   Overcast
12:15 PM 51.8 °F - 42.8 °F 71% 29.86 in 10.0 mi SSW 6.9 mph - N/A   Overcast
12:35 PM 51.8 °F - 42.8 °F 71% 29.86 in 10.0 mi South 4.6 mph - N/A   Overcast
12:55 PM 51.8 °F - 42.8 °F 71% 29.85 in 10.0 mi Calm Calm - N/A   Overcast
1:15 PM 51.8 °F - 41.0 °F 67% 29.84 in 10.0 mi Calm Calm - N/A   Overcast
1:35 PM 51.8 °F - 41.0 °F 67% 29.85 in 10.0 mi Calm Calm - N/A   Overcast
1:55 PM 53.6 °F - 41.0 °F 62% 29.85 in 10.0 mi SSW 3.5 mph - N/A   Overcast
2:15 PM 51.8 °F - 41.0 °F 67% 29.85 in 10.0 mi Calm Calm - N/A   Overcast
2:35 PM 53.6 °F - 41.0 °F 62% 29.85 in 10.0 mi North 4.6 mph - N/A   Overcast
2:55 PM 53.6 °F - 41.0 °F 62% 29.85 in 10.0 mi North 3.5 mph - N/A   Overcast
3:15 PM 53.6 °F - 41.0 °F 62% 29.86 in 10.0 mi Calm Calm - N/A   Overcast
3:35 PM 51.8 °F - 39.2 °F 62% 29.86 in 10.0 mi Calm Calm - N/A   Overcast
3:55 PM 51.8 °F - 41.0 °F 67% 29.87 in 10.0 mi Calm Calm - N/A   Overcast
4:15 PM 51.8 °F - 41.0 °F 67% 29.88 in 10.0 mi North 10.4 mph - N/A   Overcast
4:35 PM 51.8 °F - 41.0 °F 67% 29.89 in 10.0 mi North 9.2 mph - N/A   Overcast
4:55 PM 50.0 °F - 39.2 °F 66% 29.88 in 10.0 mi NNE 10.4 mph - N/A   Overcast
5:15 PM 50.0 °F - 39.2 °F 66% 29.89 in 10.0 mi North 10.4 mph - N/A   Overcast
5:35 PM 50.0 °F - 39.2 °F 66% 29.89 in 10.0 mi North 11.5 mph - N/A   Overcast
5:55 PM 48.2 °F - 39.2 °F 71% 29.89 in 10.0 mi North 11.5 mph - N/A   Overcast
6:15 PM 48.2 °F - 39.2 °F 71% 29.90 in 10.0 mi North 10.4 mph - N/A   Overcast
6:35 PM 48.2 °F - 39.2 °F 71% 29.90 in 10.0 mi NNE 12.7 mph - N/A   Overcast
6:55 PM 48.2 °F - 39.2 °F 71% 29.91 in 10.0 mi NNE 10.4 mph - N/A   Overcast
7:15 PM 48.2 °F - 39.2 °F 71% 29.91 in 10.0 mi North 8.1 mph - N/A   Overcast
7:35 PM 48.2 °F - 37.4 °F 66% 29.92 in 10.0 mi North 9.2 mph - N/A   Overcast
7:55 PM 48.2 °F - 37.4 °F 66% 29.92 in 10.0 mi North 12.7 mph - N/A   Overcast
8:35 PM 46.4 °F 40.1 °F 35.6 °F 66% 29.92 in 10.0 mi North 15.0 mph - N/A   Overcast
8:55 PM 46.4 °F 40.7 °F 33.8 °F 62% 29.93 in 10.0 mi North 12.7 mph 18.4 mph N/A   Overcast
9:15 PM 46.4 °F 40.4 °F 33.8 °F 62% 29.93 in 10.0 mi NNE 13.8 mph - N/A   Overcast
9:35 PM 46.4 °F 40.4 °F 33.8 °F 62% 29.92 in 10.0 mi NNE 13.8 mph - N/A   Overcast
9:55 PM 46.4 °F 41.5 °F 32.0 °F 57% 29.93 in 10.0 mi NNE 10.4 mph - N/A   Overcast
10:15 PM 46.4 °F 40.7 °F 32.0 °F 57% 29.93 in 10.0 mi NNE 12.7 mph - N/A   Overcast
10:35 PM 44.6 °F 37.4 °F 32.0 °F 61% 29.93 in 10.0 mi NNE 16.1 mph - N/A   Overcast
10:55 PM 44.6 °F 39.2 °F 30.2 °F 57% 29.93 in 10.0 mi NE 10.4 mph 17.3 mph N/A   Overcast
11:15 PM 44.6 °F 40.2 °F 32.0 °F 61% 29.93 in 10.0 mi NE 8.1 mph - N/A   Overcast
11:35 PM 44.6 °F 40.2 °F 32.0 °F 61% 29.93 in 10.0 mi NNE 8.1 mph - N/A   Overcast
11:55 PM 44.6 °F 39.2 °F 32.0 °F 61% 29.93 in 10.0 mi NNE 10.4 mph - N/A   Overcast